Time;durP1;ratioP1;P1;durP2;ratioP2;P2;SDS_P1;SDS_P2;PMS_P1;PMS_P2;Temp;Humidity;BMP_temperature;BMP_pressure;BME280_temperature;BME280_humidity;BME280_pressure;Samples;Min_cycle;Max_cycle;Signal;HPM_P1;HPM_P2
2023/08/29 00:04:49;;;;;;;7.38;4.10;;;;;;;24.84;40.03;96656.97;10315369;28;20060;-55
2023/08/29 00:09:48;;;;;;;6.03;3.72;;;;;;;24.80;39.46;96634.28;10317814;28;20394;-58
2023/08/29 00:14:47;;;;;;;8.63;4.07;;;;;;;25.18;39.30;96675.66;10314416;28;20104;-55
2023/08/29 00:19:46;;;;;;;7.95;4.35;;;;;;;25.23;39.27;96674.34;10309155;28;20036;-55
2023/08/29 00:24:46;;;;;;;7.18;4.30;;;;;;;25.23;39.46;96678.81;10317310;28;20025;-55
2023/08/29 00:29:45;;;;;;;10.50;4.78;;;;;;;25.24;39.38;96673.34;10304427;28;20236;-55
2023/08/29 00:34:44;;;;;;;5.20;3.55;;;;;;;25.15;39.09;96654.66;10309041;28;20069;-55
2023/08/29 00:39:43;;;;;;;6.75;4.47;;;;;;;25.27;39.44;96678.44;10310444;28;20051;-55
2023/08/29 00:44:42;;;;;;;8.32;4.53;;;;;;;25.01;39.45;96631.81;10305916;28;20032;-55
2023/08/29 00:49:41;;;;;;;7.90;4.30;;;;;;;25.32;39.26;96678.94;10302229;28;20037;-56
2023/08/29 00:54:40;;;;;;;7.07;4.03;;;;;;;25.29;39.15;96673.88;10328804;28;20056;-55
2023/08/29 00:59:39;;;;;;;6.22;4.18;;;;;;;25.31;39.19;96673.72;10340201;28;20076;-55
2023/08/29 01:04:38;;;;;;;8.88;4.53;;;;;;;25.32;39.20;96668.31;10337893;28;20461;-55
2023/08/29 01:09:38;;;;;;;7.95;4.60;;;;;;;25.35;39.13;96666.38;10329384;28;20581;-55
2023/08/29 01:15:03;;;;;;;8.23;4.57;;;;;;;25.27;39.32;96669.63;10340497;28;20064;-55
2023/08/29 01:20:05;;;;;;;10.57;4.68;;;;;;;25.17;39.64;96664.19;10327130;28;20076;-55
2023/08/29 01:25:30;;;;;;;7.97;4.28;;;;;;;25.05;39.69;96643.91;10337581;28;20563;-55
2023/08/29 01:30:30;;;;;;;7.68;3.90;;;;;;;25.08;39.42;96633.91;10339360;28;20112;-56
2023/08/29 01:35:29;;;;;;;8.52;4.30;;;;;;;25.02;39.84;96647.63;10320162;28;20100;-55
2023/08/29 01:40:28;;;;;;;6.35;3.58;;;;;;;25.18;39.68;96655.28;10335374;28;20033;-57
2023/08/29 01:45:27;;;;;;;7.10;4.20;;;;;;;25.13;39.66;96635.34;10349184;28;20021;-54
2023/08/29 01:50:28;;;;;;;7.35;4.18;;;;;;;25.19;39.82;96641.03;10337553;28;20125;-55
2023/08/29 01:55:28;;;;;;;4.38;3.72;;;;;;;25.13;40.01;96640.66;10314328;28;20459;-55
2023/08/29 02:00:28;;;;;;;7.15;4.28;;;;;;;25.01;39.92;96632.69;10326112;28;20065;-55
2023/08/29 02:05:26;;;;;;;8.73;4.00;;;;;;;24.99;40.13;96644.38;10320629;28;21018;-55
2023/08/29 02:10:25;;;;;;;8.30;4.28;;;;;;;24.94;40.24;96642.06;10325596;28;20811;-55
2023/08/29 02:15:24;;;;;;;7.95;4.30;;;;;;;24.92;40.06;96648.44;10316520;28;20036;-55
2023/08/29 02:20:23;;;;;;;10.02;4.45;;;;;;;24.90;40.27;96637.97;10301590;28;20042;-55
2023/08/29 02:25:23;;;;;;;7.22;4.03;;;;;;;24.88;40.17;96638.09;10308857;28;20072;-55
2023/08/29 02:30:22;;;;;;;7.97;4.25;;;;;;;24.79;40.24;96635.25;10304218;28;20113;-55
2023/08/29 02:35:21;;;;;;;8.00;4.45;;;;;;;24.75;40.27;96633.78;10301751;28;20062;-55
2023/08/29 02:40:19;;;;;;;7.35;4.30;;;;;;;24.74;40.29;96635.63;10298057;28;20034;-55
2023/08/29 02:45:18;;;;;;;14.52;4.63;;;;;;;24.61;40.69;96634.84;10310812;28;20026;-55
2023/08/29 02:50:17;;;;;;;7.78;4.95;;;;;;;24.63;40.75;96630.28;10303665;28;20128;-55
2023/08/29 02:55:17;;;;;;;8.80;4.47;;;;;;;24.59;40.55;96642.94;10293749;28;20054;-55
2023/08/29 03:00:18;;;;;;;6.90;4.03;;;;;;;23.71;40.74;96491.34;10307617;28;20037;-55
2023/08/29 03:05:17;;;;;;;8.60;4.50;;;;;;;24.42;40.81;96615.00;10307492;28;20850;-54
2023/08/29 03:10:17;;;;;;;13.23;4.88;;;;;;;24.46;40.85;96613.81;10297525;28;20509;-55
2023/08/29 03:15:17;;;;;;;10.45;4.43;;;;;;;24.33;41.10;96591.84;10285028;28;20081;-56
2023/08/29 03:20:16;;;;;;;10.52;4.47;;;;;;;24.31;41.32;96607.03;10304486;28;20133;-55
2023/08/29 03:25:15;;;;;;;8.95;4.70;;;;;;;24.05;41.19;96567.38;10304774;28;20076;-55
2023/08/29 03:30:14;;;;;;;13.13;4.57;;;;;;;24.25;41.12;96612.78;10300812;28;20148;-56
2023/08/29 03:35:13;;;;;;;9.02;3.95;;;;;;;24.25;41.44;96608.31;10287610;28;20085;-59
2023/08/29 03:40:12;;;;;;;20.05;5.10;;;;;;;24.23;41.39;96615.53;10313489;28;20033;-56
2023/08/29 03:45:11;;;;;;;7.40;4.32;;;;;;;24.22;41.54;96619.16;10299599;28;20497;-56
2023/08/29 03:50:10;;;;;;;9.05;3.90;;;;;;;24.22;41.73;96613.03;10302078;28;20768;-57
2023/08/29 03:55:09;;;;;;;8.90;4.13;;;;;;;24.02;41.67;96586.13;10294237;28;20120;-57
2023/08/29 04:00:11;;;;;;;8.77;4.32;;;;;;;24.05;41.74;96606.25;10292923;28;20129;-54
2023/08/29 04:05:14;;;;;;;8.90;4.32;;;;;;;24.23;41.62;96625.31;10301605;28;20053;-56
2023/08/29 04:10:13;;;;;;;8.82;4.95;;;;;;;24.28;41.62;96620.50;10298892;28;20552;-55
2023/08/29 04:15:12;;;;;;;6.72;3.85;;;;;;;24.34;41.66;96622.72;10298635;28;20033;-59
2023/08/29 04:20:12;;;;;;;9.07;4.45;;;;;;;24.39;41.52;96627.66;10305110;28;20113;-56
2023/08/29 04:25:11;;;;;;;12.60;4.25;;;;;;;24.39;41.47;96612.59;10315618;28;20136;-57
2023/08/29 04:30:10;;;;;;;9.18;4.40;;;;;;;24.41;41.69;96613.31;10320454;28;20036;-57
2023/08/29 04:35:10;;;;;;;7.30;4.25;;;;;;;24.42;41.84;96609.69;10315407;28;20069;-56
2023/08/29 04:40:10;;;;;;;11.63;4.68;;;;;;;24.48;41.62;96605.75;10309733;28;20911;-57
2023/08/29 04:45:10;;;;;;;9.32;4.82;;;;;;;24.46;41.88;96586.47;10311751;28;20132;-57
2023/08/29 04:50:09;;;;;;;7.85;4.65;;;;;;;24.54;42.13;96601.78;10307622;28;20065;-55
2023/08/29 04:55:08;;;;;;;13.63;4.43;;;;;;;24.21;41.95;96553.00;10312288;28;20033;-55
2023/08/29 05:00:09;;;;;;;12.55;5.00;;;;;;;24.42;42.45;96567.28;10317128;28;20052;-56
2023/08/29 05:05:08;;;;;;;8.35;4.97;;;;;;;24.69;42.86;96590.03;10307552;28;20067;-55
2023/08/29 05:10:07;;;;;;;8.60;4.78;;;;;;;24.77;43.26;96586.78;10312407;28;20030;-56
2023/08/29 05:15:08;;;;;;;11.15;4.72;;;;;;;24.75;43.31;96589.53;10321501;28;20060;-56
2023/08/29 05:20:09;;;;;;;24.80;6.85;;;;;;;24.82;43.64;96598.72;10319968;28;20096;-55
2023/08/29 05:25:08;;;;;;;11.02;4.90;;;;;;;24.90;43.73;96593.69;10304644;28;20093;-55
2023/08/29 05:30:08;;;;;;;9.80;5.35;;;;;;;24.76;43.58;96550.59;10319054;28;20113;-55
2023/08/29 05:35:07;;;;;;;12.35;5.28;;;;;;;25.06;43.41;96566.81;10318213;28;20068;-55
2023/08/29 05:40:08;;;;;;;9.98;4.80;;;;;;;25.05;43.29;96561.63;10316690;28;20108;-55
2023/08/29 05:45:07;;;;;;;11.23;5.30;;;;;;;25.30;43.04;96564.03;10317039;28;20084;-55
2023/08/29 05:50:07;;;;;;;9.18;4.80;;;;;;;24.79;42.89;96454.84;10313829;28;20061;-55
2023/08/29 05:55:06;;;;;;;9.00;4.95;;;;;;;25.65;42.41;96555.06;10324421;28;20057;-55
2023/08/29 06:00:07;;;;;;;10.38;5.47;;;;;;;25.79;42.58;96569.06;10317651;28;20108;-55
2023/08/29 06:05:07;;;;;;;10.23;5.10;;;;;;;26.00;41.95;96561.97;10321863;28;20116;-55
2023/08/29 06:10:07;;;;;;;10.27;5.07;;;;;;;26.23;41.51;96551.25;10303974;28;20069;-55
2023/08/29 06:15:07;;;;;;;11.38;5.05;;;;;;;26.50;41.59;96566.72;10316133;28;20112;-55
2023/08/29 06:20:08;;;;;;;15.05;5.55;;;;;;;26.82;40.60;96565.81;10311567;28;20112;-56
2023/08/29 06:25:07;;;;;;;15.00;5.20;;;;;;;27.11;40.38;96565.97;10324684;28;20091;-55
2023/08/29 06:30:07;;;;;;;12.10;5.43;;;;;;;27.35;40.13;96562.97;10305595;28;20485;-55
2023/08/29 06:35:07;;;;;;;10.90;5.22;;;;;;;27.64;40.18;96560.44;10311990;28;20066;-55
2023/08/29 06:40:09;;;;;;;12.00;5.55;;;;;;;27.93;39.52;96570.28;10316850;28;20457;-55
2023/08/29 06:45:09;;;;;;;9.50;5.63;;;;;;;28.06;38.69;96541.53;10319703;28;20112;-55
2023/08/29 06:50:08;;;;;;;14.23;5.95;;;;;;;28.60;37.60;96580.16;10314768;28;20117;-57
2023/08/29 06:55:09;;;;;;;8.93;5.22;;;;;;;28.79;37.39;96557.09;10317172;28;20111;-56
2023/08/29 07:00:10;;;;;;;10.18;5.00;;;;;;;29.11;36.40;96562.06;10315229;28;20105;-56
2023/08/29 07:05:09;;;;;;;9.93;5.47;;;;;;;29.43;35.18;96558.16;10305567;28;20076;-56
2023/08/29 07:10:09;;;;;;;13.75;5.50;;;;;;;29.58;35.17;96567.38;10316702;28;20713;-56
2023/08/29 07:15:09;;;;;;;10.52;5.45;;;;;;;29.73;34.31;96566.84;10316977;28;20116;-55
2023/08/29 07:20:11;;;;;;;14.50;6.22;;;;;;;29.94;34.33;96571.97;10310566;28;20057;-56
2023/08/29 07:25:11;;;;;;;11.40;5.40;;;;;;;30.16;33.94;96576.00;10301883;28;20843;-56
2023/08/29 07:30:14;;;;;;;7.18;5.10;;;;;;;30.18;33.51;96574.84;10303276;28;20064;-56
2023/08/29 07:35:14;;;;;;;8.73;4.72;;;;;;;30.30;33.63;96581.69;10295955;28;20469;-56
2023/08/29 07:40:14;;;;;;;11.30;5.65;;;;;;;30.32;32.81;96582.34;10278774;28;20153;-56
2023/08/29 07:45:12;;;;;;;7.68;5.15;;;;;;;30.48;32.79;96588.88;10302027;28;20124;-56
2023/08/29 07:50:12;;;;;;;10.38;5.53;;;;;;;30.48;33.08;96589.72;10299458;28;20039;-56
2023/08/29 07:55:10;;;;;;;10.10;5.82;;;;;;;30.74;32.53;96589.75;10286125;28;20149;-56
2023/08/29 08:00:11;;;;;;;9.02;4.95;;;;;;;30.67;32.77;96558.41;10282873;28;20124;-56
2023/08/29 08:05:15;;;;;;;9.82;6.03;;;;;;;30.51;32.14;96489.50;10278236;28;20141;-56
2023/08/29 08:10:15;;;;;;;12.10;5.70;;;;;;;30.92;31.56;96556.72;10279544;28;20493;-56
2023/08/29 08:15:16;;;;;;;11.98;5.97;;;;;;;31.26;32.06;96591.59;10278475;28;20116;-55
2023/08/29 08:20:15;;;;;;;13.93;6.28;;;;;;;31.41;31.64;96597.22;10280261;28;20057;-56
2023/08/29 08:25:14;;;;;;;14.55;6.28;;;;;;;31.41;30.91;96574.94;10278854;28;20072;-55
2023/08/29 08:30:13;;;;;;;19.95;6.80;;;;;;;31.04;30.86;96550.13;10274874;28;20041;-56
2023/08/29 08:35:12;;;;;;;14.43;6.85;;;;;;;31.02;30.82;96589.63;10277925;28;20495;-55
2023/08/29 08:40:14;;;;;;;11.75;6.03;;;;;;;30.90;31.51;96594.38;10278344;28;20506;-60
2023/08/29 08:45:14;;;;;;;16.58;6.15;;;;;;;30.99;31.43;96602.53;10276808;28;20064;-55
2023/08/29 08:50:14;;;;;;;15.90;6.88;;;;;;;30.94;31.17;96574.31;10299537;28;20065;-55
2023/08/29 08:55:13;;;;;;;15.43;6.28;;;;;;;30.80;31.09;96555.31;10318343;28;20065;-55
2023/08/29 09:00:12;;;;;;;11.13;5.35;;;;;;;31.09;31.01;96577.28;10307371;28;20827;-55
2023/08/29 09:05:11;;;;;;;13.18;6.20;;;;;;;31.27;30.75;96555.78;10314675;28;20084;-55
2023/08/29 09:10:12;;;;;;;31.17;7.00;;;;;;;31.82;30.46;96573.25;10315936;28;20026;-55
2023/08/29 09:15:11;;;;;;;13.43;6.18;;;;;;;32.19;30.00;96563.97;10320562;28;20092;-55
2023/08/29 09:20:11;;;;;;;9.65;6.15;;;;;;;32.60;29.22;96566.72;10291013;28;20041;-55
2023/08/29 09:25:11;;;;;;;11.98;5.85;;;;;;;32.83;28.87;96546.22;10313829;28;20069;-56
2023/08/29 09:30:12;;;;;;;8.63;5.43;;;;;;;33.22;27.94;96542.75;10317137;28;20116;-56
2023/08/29 09:35:12;;;;;;;12.90;6.22;;;;;;;33.47;28.38;96539.97;10315405;28;20169;-56
2023/08/29 09:40:15;;;;;;;7.90;5.78;;;;;;;33.87;27.58;96559.66;10322437;28;20121;-56
2023/08/29 09:45:15;;;;;;;9.55;5.60;;;;;;;34.30;27.33;96554.66;10319313;28;20125;-55
2023/08/29 09:50:14;;;;;;;7.90;5.63;;;;;;;34.62;27.17;96558.16;10311585;28;20157;-56
2023/08/29 09:55:16;;;;;;;8.57;5.75;;;;;;;34.50;25.74;96547.78;10310686;28;20524;-56
2023/08/29 10:00:18;;;;;;;8.18;6.22;;;;;;;34.60;26.34;96565.56;10323913;28;20462;-56
2023/08/29 10:05:22;;;;;;;8.40;5.85;;;;;;;34.62;26.53;96571.63;10322579;28;20069;-55
2023/08/29 10:10:21;;;;;;;8.18;5.60;;;;;;;34.59;26.30;96536.91;10302681;28;20073;-55
2023/08/29 10:15:21;;;;;;;10.75;5.38;;;;;;;34.86;26.14;96549.81;10320468;28;20477;-56
2023/08/29 10:20:22;;;;;;;8.35;5.18;;;;;;;35.09;25.10;96565.09;10319537;28;20130;-56
2023/08/29 10:25:21;;;;;;;7.32;5.05;;;;;;;35.20;24.96;96559.28;10308320;28;20492;-56
2023/08/29 10:30:25;;;;;;;9.00;5.97;;;;;;;35.37;24.70;96567.19;10302980;28;20112;-56
2023/08/29 10:35:24;;;;;;;8.10;5.72;;;;;;;35.28;24.86;96569.97;10324468;28;20084;-56
2023/08/29 10:40:33;;;;;;;9.02;5.65;;;;;;;35.09;25.11;96525.50;10314898;28;20084;-56
2023/08/29 10:45:54;;;;;;;9.07;6.00;;;;;;;34.84;25.26;96471.00;10319813;28;20132;-56
2023/08/29 10:51:13;;;;;;;9.60;7.05;;;;;;;35.65;24.88;96549.31;10333067;28;20115;-56
2023/08/29 10:56:13;;;;;;;7.60;6.18;;;;;;;35.93;23.59;96540.50;10364086;28;20056;-56
2023/08/29 11:01:26;;;;;;;8.07;6.13;;;;;;;36.10;24.35;96523.06;10351816;28;20108;-56
2023/08/29 11:06:47;;;;;;;9.65;5.75;;;;;;;36.31;24.69;96526.78;10336413;28;20121;-56
2023/08/29 11:12:05;;;;;;;8.27;6.00;;;;;;;36.08;23.20;96517.00;10360469;28;20057;-56
2023/08/29 11:17:12;;;;;;;8.25;6.05;;;;;;;35.99;23.81;96518.13;10334684;28;20116;-56
2023/08/29 11:22:11;;;;;;;9.07;6.07;;;;;;;35.84;24.27;96502.00;10344350;28;20072;-56
2023/08/29 11:27:16;;;;;;;8.80;5.90;;;;;;;35.85;24.53;96502.81;10366086;28;20084;-56
2023/08/29 11:32:17;;;;;;;8.95;5.75;;;;;;;36.17;23.92;96499.66;10358689;28;20060;-56
2023/08/29 11:37:16;;;;;;;9.43;5.55;;;;;;;36.21;24.42;96477.66;10323130;28;20064;-56
2023/08/29 11:42:20;;;;;;;8.93;5.40;;;;;;;36.44;23.16;96482.81;10322926;28;20139;-56
2023/08/29 11:47:19;;;;;;;7.40;5.53;;;;;;;36.40;23.46;96477.00;10322200;28;20500;-57
2023/08/29 11:52:18;;;;;;;9.85;5.70;;;;;;;36.44;24.47;96478.28;10320785;28;20492;-56
2023/08/29 11:57:18;;;;;;;9.07;5.78;;;;;;;36.12;24.77;96475.09;10321429;28;20053;-56
2023/08/29 12:02:18;;;;;;;5.82;4.93;;;;;;;35.98;24.03;96467.88;10325016;28;20117;-57
2023/08/29 12:07:18;;;;;;;10.30;5.38;;;;;;;35.90;23.89;96474.22;10335944;28;20056;-56
2023/08/29 12:12:27;;;;;;;9.40;5.40;;;;;;;35.64;24.02;96480.16;10340726;28;20064;-56
2023/08/29 12:17:39;;;;;;;9.93;4.90;;;;;;;35.47;24.45;96486.78;10335077;28;20091;-56
2023/08/29 12:22:49;;;;;;;9.48;5.05;;;;;;;35.30;24.68;96489.72;10349578;28;20460;-56
2023/08/29 12:27:48;;;;;;;10.48;4.90;;;;;;;35.00;24.86;96474.56;10363967;28;20535;-56
2023/08/29 12:32:47;;;;;;;7.15;4.88;;;;;;;35.14;25.14;96485.34;10345478;28;20546;-56
2023/08/29 12:37:46;;;;;;;7.53;4.57;;;;;;;35.21;25.10;96487.31;10335935;28;20137;-56
2023/08/29 12:42:47;;;;;;;21.42;6.60;;;;;;;35.12;25.21;96489.25;10332855;28;20147;-56
2023/08/29 12:47:47;;;;;;;17.02;5.53;;;;;;;34.80;25.24;96475.13;10359386;28;20048;-56
2023/08/29 12:52:46;;;;;;;9.70;4.22;;;;;;;34.87;24.61;96480.56;10335058;28;20132;-56
2023/08/29 12:57:46;;;;;;;34.10;6.20;;;;;;;34.81;24.54;96466.00;10319368;28;20033;-56
2023/08/29 13:02:46;;;;;;;12.60;4.30;;;;;;;35.03;24.94;96479.56;10317691;28;20120;-56
2023/08/29 13:07:45;;;;;;;12.63;5.65;;;;;;;34.95;24.60;96474.28;10298435;28;20694;-56
2023/08/29 13:12:44;;;;;;;13.25;4.75;;;;;;;34.93;25.05;96469.91;10320812;28;20108;-56
2023/08/29 13:17:44;;;;;;;8.05;4.95;;;;;;;34.81;24.63;96417.50;10325670;28;20051;-56
2023/08/29 13:22:47;;;;;;;11.05;4.82;;;;;;;35.14;24.87;96457.56;10324750;28;20065;-56
2023/08/29 13:27:48;;;;;;;11.95;4.97;;;;;;;35.35;24.62;96441.41;10302271;28;20092;-54
2023/08/29 13:32:48;;;;;;;8.32;5.00;;;;;;;35.49;24.58;96430.78;10326228;28;20132;-55
2023/08/29 13:37:47;;;;;;;11.82;4.93;;;;;;;35.42;24.88;96419.91;10328232;28;20144;-55
2023/08/29 13:42:47;;;;;;;58.90;8.80;;;;;;;35.40;24.46;96415.75;10327965;28;20030;-54
2023/08/29 13:47:46;;;;;;;14.35;5.97;;;;;;;35.28;24.57;96413.53;10322566;28;20124;-56
2023/08/29 13:52:45;;;;;;;10.18;5.28;;;;;;;35.50;24.83;96416.25;10333752;28;20148;-55
2023/08/29 13:57:44;;;;;;;11.32;5.30;;;;;;;35.08;23.82;96305.44;10350797;28;20145;-55
2023/08/29 14:02:43;;;;;;;11.32;5.93;;;;;;;35.81;24.14;96396.25;10330490;28;20123;-55
2023/08/29 14:07:43;;;;;;;8.90;6.20;;;;;;;36.04;23.62;96391.50;10331909;28;20064;-55
2023/08/29 14:12:42;;;;;;;11.00;5.38;;;;;;;36.46;22.53;96387.03;10337235;28;20125;-56
2023/08/29 14:17:41;;;;;;;8.93;5.35;;;;;;;36.43;22.98;96373.09;10325538;28;20033;-55
2023/08/29 14:22:42;;;;;;;9.57;5.93;;;;;;;36.14;23.67;96373.09;10335642;28;20120;-55
2023/08/29 14:27:41;;;;;;;11.68;5.10;;;;;;;35.97;23.57;96369.84;10361688;28;20063;-55
2023/08/29 14:32:40;;;;;;;7.25;5.55;;;;;;;35.58;22.98;96367.63;10365044;28;20048;-55
2023/08/29 14:37:39;;;;;;;13.23;6.35;;;;;;;35.16;23.64;96353.03;10330402;28;20504;-60
2023/08/29 14:42:38;;;;;;;13.27;6.15;;;;;;;34.48;24.25;96322.72;10325210;28;20028;-55
2023/08/29 14:47:37;;;;;;;9.55;6.22;;;;;;;34.16;24.67;96356.22;10330471;28;20030;-55
2023/08/29 14:52:37;;;;;;;11.30;6.63;;;;;;;33.91;25.42;96380.66;10334330;28;20124;-55
2023/08/29 14:57:38;;;;;;;12.30;6.90;;;;;;;33.52;26.12;96376.22;10337556;28;20108;-55
2023/08/29 15:02:37;;;;;;;11.50;6.75;;;;;;;33.28;26.50;96381.75;10338126;28;20112;-55
2023/08/29 15:07:36;;;;;;;16.23;7.60;;;;;;;33.16;27.43;96379.50;10359955;28;20544;-55
2023/08/29 15:12:35;;;;;;;13.48;7.35;;;;;;;33.13;27.64;96384.38;10330347;28;20064;-55
2023/08/29 15:17:34;;;;;;;12.35;7.30;;;;;;;32.85;27.41;96325.69;10317855;28;20033;-55
2023/08/29 15:22:33;;;;;;;12.27;7.32;;;;;;;32.44;27.30;96266.78;10324628;28;20036;-55
2023/08/29 15:27:32;;;;;;;13.43;7.53;;;;;;;32.86;27.59;96362.31;10311871;28;20573;-55
2023/08/29 15:32:31;;;;;;;12.63;7.60;;;;;;;32.64;28.26;96364.72;10316183;28;20515;-55
2023/08/29 15:37:31;;;;;;;10.50;7.68;;;;;;;32.59;28.50;96366.28;10326849;28;20116;-55
2023/08/29 15:42:31;;;;;;;12.50;7.90;;;;;;;32.47;28.03;96367.63;10333204;28;20057;-55
2023/08/29 15:47:30;;;;;;;10.45;7.68;;;;;;;32.21;28.68;96341.88;10328316;28;20108;-55
2023/08/29 15:52:29;;;;;;;12.85;7.28;;;;;;;32.28;28.35;96356.28;10322428;28;20117;-55
2023/08/29 15:57:28;;;;;;;11.20;7.25;;;;;;;32.12;28.42;96359.81;10320858;28;20108;-55
2023/08/29 16:02:28;;;;;;;10.25;7.50;;;;;;;31.78;29.20;96351.97;10323490;28;20132;-56
2023/08/29 16:07:27;;;;;;;14.63;7.97;;;;;;;31.46;29.05;96320.59;10321433;28;20056;-55
2023/08/29 16:12:28;;;;;;;16.10;8.85;;;;;;;31.52;29.13;96331.53;10318241;28;20037;-55
2023/08/29 16:17:27;;;;;;;15.35;8.98;;;;;;;31.40;29.47;96332.81;10326725;28;20068;-55
2023/08/29 16:22:26;;;;;;;12.30;8.00;;;;;;;31.26;29.58;96338.84;10318560;28;21042;-57
2023/08/29 16:27:25;;;;;;;13.20;8.07;;;;;;;31.13;29.88;96332.13;10321297;28;20104;-55
2023/08/29 16:32:24;;;;;;;17.63;8.45;;;;;;;30.93;30.52;96336.88;10322041;28;20060;-54
2023/08/29 16:37:23;;;;;;;12.30;7.75;;;;;;;30.81;30.61;96350.75;10305772;28;20038;-55
2023/08/29 16:42:23;;;;;;;18.55;8.30;;;;;;;30.67;31.20;96374.47;10321211;28;20654;-55
2023/08/29 16:47:22;;;;;;;12.45;7.63;;;;;;;30.57;31.80;96373.75;10296823;28;20076;-55
2023/08/29 16:52:21;;;;;;;14.73;8.65;;;;;;;30.27;32.78;96362.53;10319007;28;20050;-55
2023/08/29 16:57:19;;;;;;;16.42;8.50;;;;;;;30.29;33.49;96391.81;10324418;28;20025;-56
2023/08/29 17:02:19;;;;;;;11.20;7.60;;;;;;;29.56;32.98;96310.06;10324292;28;20032;-55
2023/08/29 17:07:18;;;;;;;13.48;8.52;;;;;;;29.92;33.20;96427.66;10333843;28;20074;-55
2023/08/29 17:12:17;;;;;;;11.40;6.88;;;;;;;29.75;32.90;96415.97;10327806;28;20038;-56
2023/08/29 17:17:17;;;;;;;10.27;6.20;;;;;;;29.66;32.82;96406.19;10325724;28;20132;-57
2023/08/29 17:22:16;;;;;;;9.57;6.78;;;;;;;29.59;32.95;96410.47;10326658;28;20480;-54
2023/08/29 17:27:15;;;;;;;10.63;6.78;;;;;;;29.50;32.49;96425.59;10330140;28;20472;-54
2023/08/29 17:32:16;;;;;;;13.75;8.13;;;;;;;29.35;34.29;96446.66;10325079;28;20033;-55
2023/08/29 17:37:15;;;;;;;13.20;7.03;;;;;;;28.53;39.05;96452.75;10305793;28;20139;-55
2023/08/29 17:42:14;;;;;;;14.43;7.80;;;;;;;27.68;40.31;96419.72;10324851;28;20025;-54
2023/08/29 17:47:16;;;;;;;13.27;8.15;;;;;;;26.98;42.80;96457.88;10330434;28;20111;-55
2023/08/29 17:52:15;;;;;;;12.75;8.15;;;;;;;26.69;43.91;96480.84;10327833;28;20125;-55
2023/08/29 17:57:14;;;;;;;13.23;8.57;;;;;;;26.63;43.33;96489.34;10337519;28;20118;-54
2023/08/29 18:02:14;;;;;;;15.70;8.30;;;;;;;26.41;45.02;96467.25;10325884;28;20045;-55
2023/08/29 18:07:14;;;;;;;13.30;8.07;;;;;;;25.79;46.07;96426.38;10328184;28;20065;-55
2023/08/29 18:12:13;;;;;;;11.65;8.05;;;;;;;25.88;46.19;96460.16;10325277;28;20116;-54
2023/08/29 18:17:12;;;;;;;14.07;8.98;;;;;;;25.73;47.25;96443.66;10303298;28;20134;-55
2023/08/29 18:22:11;;;;;;;11.80;8.02;;;;;;;25.72;47.09;96433.19;10332582;28;20029;-56
2023/08/29 18:27:10;;;;;;;13.23;8.50;;;;;;;25.64;46.96;96417.88;10307441;28;20041;-55
2023/08/29 18:32:09;;;;;;;13.82;8.23;;;;;;;25.55;47.02;96418.66;10326795;28;20061;-58
2023/08/29 18:37:12;;;;;;;15.18;9.68;;;;;;;25.48;47.35;96423.59;10318178;28;20033;-60
2023/08/29 18:42:11;;;;;;;10.85;7.78;;;;;;;25.26;48.60;96451.06;10320666;28;20116;-55
2023/08/29 18:47:10;;;;;;;11.18;8.82;;;;;;;25.00;50.52;96481.50;10325034;28;20033;-55
2023/08/29 18:52:09;;;;;;;13.82;9.63;;;;;;;24.64;51.37;96455.09;10320768;28;20820;-55
2023/08/29 18:57:08;;;;;;;16.30;9.10;;;;;;;24.38;54.88;96498.69;10317494;28;20894;-56
2023/08/29 19:02:07;;;;;;;13.35;9.38;;;;;;;24.08;56.48;96509.81;10316674;28;20108;-55
2023/08/29 19:07:06;;;;;;;11.48;8.98;;;;;;;23.67;56.94;96464.25;10318166;28;20096;-55
2023/08/29 19:12:06;;;;;;;13.60;9.38;;;;;;;23.95;56.85;96505.41;10322566;28;20116;-55
2023/08/29 19:17:07;;;;;;;12.60;8.40;;;;;;;23.58;58.04;96497.56;10323450;28;20116;-55
2023/08/29 19:22:06;;;;;;;10.90;8.43;;;;;;;23.20;59.96;96501.16;10323293;28;20629;-55
2023/08/29 19:27:06;;;;;;;12.95;8.13;;;;;;;23.21;59.20;96500.22;10319816;28;20448;-55
2023/08/29 19:32:05;;;;;;;14.10;8.60;;;;;;;23.34;58.53;96494.84;10333254;28;20045;-55
2023/08/29 19:37:05;;;;;;;14.38;9.00;;;;;;;23.40;58.18;96498.88;10315773;28;20116;-56
2023/08/29 19:42:04;;;;;;;13.57;9.43;;;;;;;23.31;58.06;96481.00;10313820;28;20141;-55
2023/08/29 19:47:03;;;;;;;13.07;8.98;;;;;;;23.40;57.70;96506.81;10306335;28;20057;-55
2023/08/29 19:52:02;;;;;;;12.18;8.65;;;;;;;23.36;58.14;96514.13;10313679;28;20076;-55
2023/08/29 19:57:01;;;;;;;14.32;9.80;;;;;;;23.25;58.32;96519.34;10310316;28;20122;-55
2023/08/29 20:02:01;;;;;;;14.73;9.90;;;;;;;23.33;57.58;96524.09;10306097;28;20111;-55
2023/08/29 20:07:00;;;;;;;13.52;9.52;;;;;;;23.39;56.97;96523.66;10303389;28;20113;-55
2023/08/29 20:12:00;;;;;;;15.15;9.40;;;;;;;23.20;57.00;96514.38;10300820;28;20053;-55
2023/08/29 20:17:00;;;;;;;12.18;9.20;;;;;;;23.35;57.02;96522.16;10297728;28;20482;-55
2023/08/29 20:21:59;;;;;;;13.90;8.88;;;;;;;23.35;56.71;96528.34;10304937;28;20117;-55
2023/08/29 20:26:58;;;;;;;16.10;9.18;;;;;;;23.26;56.79;96534.28;10297278;28;20044;-55
2023/08/29 20:31:57;;;;;;;13.60;9.40;;;;;;;23.28;57.29;96537.69;10296486;28;20568;-55
2023/08/29 20:36:55;;;;;;;18.63;9.90;;;;;;;23.25;56.87;96534.38;10306373;28;20351;-55
2023/08/29 20:41:54;;;;;;;19.23;10.18;;;;;;;23.17;57.57;96549.00;10302266;28;20104;-55
2023/08/29 20:46:53;;;;;;;16.10;10.27;;;;;;;23.07;58.27;96541.81;10308231;28;20052;-55
2023/08/29 20:51:52;;;;;;;15.13;10.38;;;;;;;22.85;59.02;96529.28;10303131;28;20052;-55
2023/08/29 20:56:51;;;;;;;14.23;9.98;;;;;;;22.70;60.27;96534.66;10285744;28;20042;-55
2023/08/29 21:01:50;;;;;;;16.95;10.00;;;;;;;22.67;60.83;96547.22;10302764;28;20132;-55
2023/08/29 21:06:49;;;;;;;16.98;10.57;;;;;;;22.68;60.96;96555.06;10298107;28;20044;-55
2023/08/29 21:11:48;;;;;;;15.52;10.65;;;;;;;22.65;60.76;96563.22;10297852;28;20040;-55
2023/08/29 21:16:47;;;;;;;15.38;10.40;;;;;;;22.34;60.04;96519.50;10289043;28;20504;-55
2023/08/29 21:21:47;;;;;;;13.77;9.18;;;;;;;22.67;60.06;96566.59;10298448;28;20119;-55
2023/08/29 21:26:46;;;;;;;13.40;9.60;;;;;;;22.27;60.39;96513.81;10291218;28;20137;-55
2023/08/29 21:31:45;;;;;;;14.45;9.52;;;;;;;22.50;60.32;96577.47;10291907;28;20026;-55
2023/08/29 21:36:44;;;;;;;15.55;10.27;;;;;;;22.37;60.83;96570.38;10305239;28;20033;-55
2023/08/29 21:41:44;;;;;;;17.88;10.32;;;;;;;22.23;62.54;96586.31;10298459;28;20508;-55
2023/08/29 21:46:43;;;;;;;16.58;10.18;;;;;;;22.15;63.22;96593.88;10289712;28;20140;-55
2023/08/29 21:51:42;;;;;;;14.77;10.55;;;;;;;21.78;64.23;96569.88;10309610;28;20146;-55
2023/08/29 21:56:43;;;;;;;16.95;10.60;;;;;;;21.76;64.53;96608.75;10316726;28;20112;-55
2023/08/29 22:01:43;;;;;;;14.38;10.07;;;;;;;21.63;64.81;96598.09;10315461;28;20568;-55
2023/08/29 22:06:42;;;;;;;13.52;10.23;;;;;;;21.61;64.13;96607.06;10315468;28;20068;-55
2023/08/29 22:11:41;;;;;;;14.65;11.13;;;;;;;21.50;64.36;96602.47;10275002;28;20039;-55
2023/08/29 22:16:40;;;;;;;16.33;9.98;;;;;;;21.52;64.83;96617.28;10303479;28;20036;-55
2023/08/29 22:21:39;;;;;;;15.88;10.15;;;;;;;21.53;65.03;96621.59;10297134;28;20720;-55
2023/08/29 22:26:38;;;;;;;12.85;10.45;;;;;;;21.09;65.09;96548.69;10298404;28;20124;-55
2023/08/29 22:31:36;;;;;;;12.82;9.65;;;;;;;21.32;65.33;96615.03;10298032;28;20413;-55
2023/08/29 22:36:35;;;;;;;15.10;9.25;;;;;;;21.39;64.51;96650.66;10304622;28;20029;-54
2023/08/29 22:41:34;;;;;;;14.45;9.48;;;;;;;21.18;65.27;96679.19;10303072;28;20710;-55
2023/08/29 22:46:33;;;;;;;13.48;9.73;;;;;;;20.44;70.63;96680.06;10296958;28;20040;-54
2023/08/29 22:51:32;;;;;;;20.05;11.07;;;;;;;20.38;70.24;96670.69;10294993;28;20070;-54
2023/08/29 22:56:31;;;;;;;15.90;10.95;;;;;;;20.46;69.92;96673.75;10284867;28;20597;-54
2023/08/29 23:01:31;;;;;;;13.95;10.23;;;;;;;20.33;69.62;96648.16;10284109;28;20560;-54
2023/08/29 23:06:30;;;;;;;13.77;10.80;;;;;;;20.58;69.00;96688.00;10283827;28;20061;-53